Погода Юржишкина 2 недели

Минская область, Белоруссия

28 мая-09 июня
  • 28мая
    Сегодня
    +13°
    +27°
    Практически безоблачно
    ВремяПогодаТемператураВлажностьДавлениеВетер, м/сВероятность осадков
    00:00Ясно и безоблачно+17°C75 %749 мм2.7 м/с2 %
    03:00Ясно и безоблачно+15°C83 %749 мм2.5 м/с2 %
    06:00Ясно и безоблачно+14°C81 %748 мм2.8 м/с2 %
    09:00Ясно и безоблачно+22°C61 %749 мм3.1 м/с2 %
    12:00Небольшая облачность+24°C45 %748 мм4.0 м/с2 %
    15:00Практически безоблачно+26°C42 %747 мм3.9 м/с11 %
    18:00Небольшая облачность+24°C49 %747 мм3.4 м/с25 %
    21:00Ясно и безоблачно+21°C64 %746 мм2.2 м/с8 %
  • 29мая
    Среда
    +13°
    +27°
    Практически безоблачно
    ВремяПогодаТемператураВлажностьДавлениеВетер, м/сВероятность осадков
    00:00Ясно и безоблачно+16°C82 %746 мм3.7 м/с2 %
    03:00Ясно и безоблачно+14°C85 %745 мм3.3 м/с2 %
    06:00Облачно с прояснениями+14°C76 %745 мм3.0 м/с2 %
    09:00Облачно с прояснениями+21°C61 %745 мм2.3 м/с2 %
    12:00Небольшая облачность+24°C42 %745 мм1.1 м/с4 %
    15:00Практически безоблачно+27°C30 %744 мм4.2 м/с11 %
    18:00Практически безоблачно+26°C30 %743 мм3.8 м/с4 %
    21:00Ясно и безоблачно+22°C46 %743 мм3.0 м/с3 %
  • 30мая
    Четверг
    +12°
    +25°
    Облачно с прояснениями
    ВремяПогодаТемператураВлажностьДавлениеВетер, м/сВероятность осадков
    00:00Ясно и безоблачно+17°C52 %742 мм2.9 м/с2 %
    03:00Ясно и безоблачно+15°C61 %742 мм2.9 м/с2 %
    06:00Ясно и безоблачно+14°C66 %741 мм3.2 м/с2 %
    09:00Облачно с прояснениями+21°C51 %741 мм3.3 м/с2 %
    12:00Облачно с прояснениями+24°C37 %741 мм4.7 м/с11 %
    15:00Облачно с прояснениями+24°C30 %740 мм3.9 м/с10 %
    18:00Облачно с прояснениями+25°C26 %739 мм4.1 м/с9 %
    21:00Практически безоблачно+20°C55 %739 мм2.3 м/с6 %
  • 31мая
    Пятница
    +12°
    +24°
    Пасмурно, небольшой дождь
    ВремяПогодаТемператураВлажностьДавлениеВетер, м/сВероятность осадков
    00:00Облачно с прояснениями+17°C51 %740 мм3.6 м/с7 %
    03:00Ясно и безоблачно+15°C70 %740 мм3.9 м/с11 %
    06:00Ясно и безоблачно+13°C84 %740 мм4.2 м/с11 %
    09:00Ясно и безоблачно+21°C64 %741 мм4.1 м/с10 %
    12:00Облачно с прояснениями+23°C51 %741 мм4.8 м/с48 %
    15:00Пасмурно, небольшой дождь+23°C45 %741 мм4.9 м/с69 %
    18:00Облачно с прояснениями, небольшой дождь+24°C44 %741 мм4.1 м/с70 %
    21:00Небольшая облачность+20°C69 %742 мм2.6 м/с37 %
Мы используем cookies
Соглашаюсь